Aviation Digital Data Service (ADDS)

Output produced by METARs form (0021 UTC 25 April 2015)
found at http://aviationweather.gov/adds/metars/
 
KPWM 242334Z 2500/2524 32012G20KT P6SM BKN100 
     FM250200 28010KT P6SM BKN100 
     FM251400 30012G20KT P6SM SCT050 BKN070 
     FM252200 31010KT P6SM SCT050 BKN100